sensor_id;sensor_type;location;lat;lon;timestamp;P1;durP1;ratioP1;P2;durP2;ratioP2
11054;SDS011;5580;50.106;8.702;2024-03-23T00:54:18;22.10;;;15.20;;
11054;SDS011;5580;50.106;8.702;2024-03-23T00:56:44;24.67;;;15.33;;
11054;SDS011;5580;50.106;8.702;2024-03-23T00:59:09;23.07;;;15.90;;
11054;SDS011;5580;50.106;8.702;2024-03-23T01:01:35;25.60;;;16.33;;
11054;SDS011;5580;50.106;8.702;2024-03-23T01:04:01;25.87;;;16.43;;
11054;SDS011;5580;50.106;8.702;2024-03-23T01:06:27;24.80;;;17.03;;
11054;SDS011;5580;50.106;8.702;2024-03-23T01:08:53;27.20;;;18.63;;
11054;SDS011;5580;50.106;8.702;2024-03-23T01:11:18;31.07;;;19.37;;
11054;SDS011;5580;50.106;8.702;2024-03-23T01:13:44;26.27;;;17.67;;
11054;SDS011;5580;50.106;8.702;2024-03-23T01:16:09;26.93;;;18.30;;
11054;SDS011;5580;50.106;8.702;2024-03-23T01:18:35;25.23;;;18.40;;
11054;SDS011;5580;50.106;8.702;2024-03-23T01:21:00;26.73;;;17.53;;
11054;SDS011;5580;50.106;8.702;2024-03-23T01:23:27;25.53;;;16.70;;
11054;SDS011;5580;50.106;8.702;2024-03-23T01:25:53;25.23;;;17.67;;
11054;SDS011;5580;50.106;8.702;2024-03-23T01:28:19;24.50;;;17.20;;
11054;SDS011;5580;50.106;8.702;2024-03-23T01:30:46;25.53;;;16.73;;
11054;SDS011;5580;50.106;8.702;2024-03-23T01:33:12;25.83;;;16.70;;
11054;SDS011;5580;50.106;8.702;2024-03-23T01:35:37;28.27;;;18.07;;
11054;SDS011;5580;50.106;8.702;2024-03-23T01:38:03;25.83;;;16.87;;
11054;SDS011;5580;50.106;8.702;2024-03-23T01:40:29;25.50;;;16.57;;
11054;SDS011;5580;50.106;8.702;2024-03-23T01:43:04;25.97;;;17.50;;
11054;SDS011;5580;50.106;8.702;2024-03-23T01:45:32;26.10;;;17.83;;
11054;SDS011;5580;50.106;8.702;2024-03-23T01:47:58;29.60;;;19.00;;
11054;SDS011;5580;50.106;8.702;2024-03-23T01:50:24;25.60;;;17.57;;
11054;SDS011;5580;50.106;8.702;2024-03-23T01:52:50;30.77;;;20.00;;
11054;SDS011;5580;50.106;8.702;2024-03-23T01:55:16;30.87;;;20.27;;
11054;SDS011;5580;50.106;8.702;2024-03-23T01:57:42;31.67;;;20.10;;
11054;SDS011;5580;50.106;8.702;2024-03-23T02:00:07;27.70;;;19.27;;
11054;SDS011;5580;50.106;8.702;2024-03-23T02:02:35;29.67;;;19.93;;
11054;SDS011;5580;50.106;8.702;2024-03-23T02:05:00;28.47;;;18.83;;
11054;SDS011;5580;50.106;8.702;2024-03-23T02:07:26;30.17;;;19.97;;
11054;SDS011;5580;50.106;8.702;2024-03-23T02:09:52;24.70;;;17.27;;
11054;SDS011;5580;50.106;8.702;2024-03-23T02:12:18;24.80;;;17.50;;
11054;SDS011;5580;50.106;8.702;2024-03-23T02:14:44;30.03;;;18.40;;
11054;SDS011;5580;50.106;8.702;2024-03-23T02:17:09;27.10;;;18.20;;
11054;SDS011;5580;50.106;8.702;2024-03-23T02:19:35;27.33;;;18.90;;
11054;SDS011;5580;50.106;8.702;2024-03-23T02:22:01;26.30;;;16.87;;
11054;SDS011;5580;50.106;8.702;2024-03-23T02:24:26;23.97;;;16.93;;
11054;SDS011;5580;50.106;8.702;2024-03-23T02:26:54;30.13;;;18.97;;
11054;SDS011;5580;50.106;8.702;2024-03-23T02:29:19;27.40;;;18.17;;
11054;SDS011;5580;50.106;8.702;2024-03-23T02:31:45;28.30;;;19.03;;
11054;SDS011;5580;50.106;8.702;2024-03-23T02:34:11;28.13;;;18.60;;
11054;SDS011;5580;50.106;8.702;2024-03-23T02:36:36;26.33;;;18.90;;
11054;SDS011;5580;50.106;8.702;2024-03-23T02:39:02;30.40;;;19.47;;
11054;SDS011;5580;50.106;8.702;2024-03-23T02:41:28;31.77;;;21.00;;
11054;SDS011;5580;50.106;8.702;2024-03-23T02:43:53;32.40;;;20.60;;
11054;SDS011;5580;50.106;8.702;2024-03-23T02:46:19;28.33;;;18.73;;
11054;SDS011;5580;50.106;8.702;2024-03-23T02:48:44;30.00;;;20.73;;
11054;SDS011;5580;50.106;8.702;2024-03-23T02:51:10;30.23;;;19.67;;
11054;SDS011;5580;50.106;8.702;2024-03-23T02:53:35;28.00;;;19.80;;
11054;SDS011;5580;50.106;8.702;2024-03-23T02:56:01;28.70;;;18.27;;
11054;SDS011;5580;50.106;8.702;2024-03-23T02:58:26;26.70;;;17.87;;
11054;SDS011;5580;50.106;8.702;2024-03-23T03:00:52;27.67;;;18.67;;
11054;SDS011;5580;50.106;8.702;2024-03-23T03:03:18;28.80;;;18.03;;
11054;SDS011;5580;50.106;8.702;2024-03-23T03:05:43;29.00;;;18.77;;
11054;SDS011;5580;50.106;8.702;2024-03-23T03:08:09;26.57;;;17.40;;
11054;SDS011;5580;50.106;8.702;2024-03-23T03:10:34;27.40;;;17.97;;
11054;SDS011;5580;50.106;8.702;2024-03-23T03:13:01;28.37;;;18.60;;
11054;SDS011;5580;50.106;8.702;2024-03-23T03:15:27;26.90;;;18.80;;
11054;SDS011;5580;50.106;8.702;2024-03-23T03:17:52;25.67;;;17.73;;
11054;SDS011;5580;50.106;8.702;2024-03-23T03:20:18;28.17;;;18.57;;
11054;SDS011;5580;50.106;8.702;2024-03-23T03:22:43;25.07;;;17.43;;
11054;SDS011;5580;50.106;8.702;2024-03-23T03:25:09;28.50;;;18.10;;
11054;SDS011;5580;50.106;8.702;2024-03-23T03:27:35;27.87;;;18.70;;
11054;SDS011;5580;50.106;8.702;2024-03-23T03:30:00;26.67;;;18.13;;
11054;SDS011;5580;50.106;8.702;2024-03-23T03:32:31;27.43;;;17.27;;
11054;SDS011;5580;50.106;8.702;2024-03-23T03:34:57;24.23;;;16.73;;
11054;SDS011;5580;50.106;8.702;2024-03-23T03:37:23;28.00;;;17.60;;
11054;SDS011;5580;50.106;8.702;2024-03-23T03:39:49;25.53;;;16.97;;
11054;SDS011;5580;50.106;8.702;2024-03-23T03:42:15;26.77;;;16.57;;
11054;SDS011;5580;50.106;8.702;2024-03-23T03:44:41;22.93;;;16.23;;
11054;SDS011;5580;50.106;8.702;2024-03-23T03:47:06;26.67;;;17.03;;
11054;SDS011;5580;50.106;8.702;2024-03-23T03:49:32;25.17;;;16.73;;
11054;SDS011;5580;50.106;8.702;2024-03-23T03:51:58;25.77;;;16.47;;
11054;SDS011;5580;50.106;8.702;2024-03-23T03:54:23;23.77;;;16.90;;
11054;SDS011;5580;50.106;8.702;2024-03-23T03:56:49;25.53;;;16.57;;
11054;SDS011;5580;50.106;8.702;2024-03-23T03:59:15;26.63;;;16.97;;
11054;SDS011;5580;50.106;8.702;2024-03-23T04:01:40;26.27;;;17.73;;
11054;SDS011;5580;50.106;8.702;2024-03-23T04:04:06;27.17;;;17.73;;
11054;SDS011;5580;50.106;8.702;2024-03-23T04:06:32;27.10;;;17.10;;
11054;SDS011;5580;50.106;8.702;2024-03-23T04:08:58;27.53;;;17.63;;
11054;SDS011;5580;50.106;8.702;2024-03-23T04:11:24;26.20;;;17.63;;
11054;SDS011;5580;50.106;8.702;2024-03-23T04:13:49;28.97;;;18.27;;
11054;SDS011;5580;50.106;8.702;2024-03-23T04:16:24;29.13;;;18.67;;
11054;SDS011;5580;50.106;8.702;2024-03-23T04:18:53;33.13;;;20.73;;
11054;SDS011;5580;50.106;8.702;2024-03-23T04:21:19;33.87;;;20.10;;
11054;SDS011;5580;50.106;8.702;2024-03-23T04:23:45;31.43;;;18.67;;
11054;SDS011;5580;50.106;8.702;2024-03-23T04:26:11;25.67;;;15.87;;
11054;SDS011;5580;50.106;8.702;2024-03-23T04:28:36;20.57;;;11.90;;
11054;SDS011;5580;50.106;8.702;2024-03-23T04:31:05;18.87;;;11.20;;
11054;SDS011;5580;50.106;8.702;2024-03-23T04:33:31;17.57;;;10.40;;
11054;SDS011;5580;50.106;8.702;2024-03-23T04:35:56;14.00;;;8.40;;
11054;SDS011;5580;50.106;8.702;2024-03-23T04:38:22;15.27;;;7.50;;
11054;SDS011;5580;50.106;8.702;2024-03-23T04:40:57;10.97;;;6.20;;
11054;SDS011;5580;50.106;8.702;2024-03-23T04:43:24;9.30;;;5.13;;
11054;SDS011;5580;50.106;8.702;2024-03-23T04:45:50;6.30;;;4.20;;
11054;SDS011;5580;50.106;8.702;2024-03-23T04:48:16;5.73;;;3.93;;
11054;SDS011;5580;50.106;8.702;2024-03-23T04:50:44;4.90;;;3.50;;
11054;SDS011;5580;50.106;8.702;2024-03-23T04:53:09;4.27;;;3.30;;
11054;SDS011;5580;50.106;8.702;2024-03-23T04:55:35;3.80;;;2.90;;
11054;SDS011;5580;50.106;8.702;2024-03-23T04:58:01;3.37;;;2.77;;
11054;SDS011;5580;50.106;8.702;2024-03-23T05:00:26;3.00;;;2.70;;
11054;SDS011;5580;50.106;8.702;2024-03-23T05:02:52;2.63;;;2.43;;
11054;SDS011;5580;50.106;8.702;2024-03-23T05:05:18;3.23;;;2.10;;
11054;SDS011;5580;50.106;8.702;2024-03-23T05:07:43;2.57;;;2.13;;
11054;SDS011;5580;50.106;8.702;2024-03-23T05:10:09;3.20;;;2.17;;
11054;SDS011;5580;50.106;8.702;2024-03-23T05:12:36;1.77;;;1.67;;
11054;SDS011;5580;50.106;8.702;2024-03-23T05:15:03;2.63;;;2.43;;
11054;SDS011;5580;50.106;8.702;2024-03-23T05:17:30;1.47;;;1.37;;
11054;SDS011;5580;50.106;8.702;2024-03-23T05:19:56;1.77;;;1.50;;
11054;SDS011;5580;50.106;8.702;2024-03-23T05:22:22;2.10;;;1.90;;
11054;SDS011;5580;50.106;8.702;2024-03-23T05:24:48;2.40;;;1.93;;
11054;SDS011;5580;50.106;8.702;2024-03-23T05:27:14;3.63;;;2.23;;
11054;SDS011;5580;50.106;8.702;2024-03-23T05:29:40;2.60;;;2.40;;
11054;SDS011;5580;50.106;8.702;2024-03-23T05:32:05;2.57;;;2.37;;
11054;SDS011;5580;50.106;8.702;2024-03-23T05:34:31;2.13;;;2.03;;
11054;SDS011;5580;50.106;8.702;2024-03-23T05:36:57;2.47;;;2.27;;
11054;SDS011;5580;50.106;8.702;2024-03-23T05:39:22;2.83;;;2.23;;
11054;SDS011;5580;50.106;8.702;2024-03-23T05:41:48;2.53;;;2.40;;
11054;SDS011;5580;50.106;8.702;2024-03-23T05:44:14;2.80;;;2.37;;
11054;SDS011;5580;50.106;8.702;2024-03-23T05:46:40;2.73;;;2.53;;
11054;SDS011;5580;50.106;8.702;2024-03-23T05:49:06;2.30;;;2.10;;
11054;SDS011;5580;50.106;8.702;2024-03-23T05:51:31;3.30;;;2.20;;
11054;SDS011;5580;50.106;8.702;2024-03-23T05:53:57;3.23;;;2.60;;
11054;SDS011;5580;50.106;8.702;2024-03-23T05:56:23;2.90;;;2.70;;
11054;SDS011;5580;50.106;8.702;2024-03-23T05:58:48;4.63;;;3.50;;
11054;SDS011;5580;50.106;8.702;2024-03-23T06:01:14;6.87;;;3.47;;
11054;SDS011;5580;50.106;8.702;2024-03-23T06:03:39;3.73;;;3.43;;
11054;SDS011;5580;50.106;8.702;2024-03-23T06:06:05;4.23;;;3.13;;
11054;SDS011;5580;50.106;8.702;2024-03-23T06:08:35;4.73;;;3.07;;
11054;SDS011;5580;50.106;8.702;2024-03-23T06:11:01;3.30;;;3.00;;
11054;SDS011;5580;50.106;8.702;2024-03-23T06:13:27;4.57;;;3.13;;
11054;SDS011;5580;50.106;8.702;2024-03-23T06:15:55;3.20;;;2.90;;
11054;SDS011;5580;50.106;8.702;2024-03-23T06:18:21;3.43;;;2.93;;
11054;SDS011;5580;50.106;8.702;2024-03-23T06:20:46;2.90;;;2.60;;
11054;SDS011;5580;50.106;8.702;2024-03-23T06:23:12;3.33;;;2.70;;
11054;SDS011;5580;50.106;8.702;2024-03-23T06:25:38;2.37;;;2.20;;
11054;SDS011;5580;50.106;8.702;2024-03-23T06:28:04;3.03;;;2.10;;
11054;SDS011;5580;50.106;8.702;2024-03-23T06:30:30;1.90;;;1.80;;
11054;SDS011;5580;50.106;8.702;2024-03-23T06:32:57;0.77;;;0.77;;
11054;SDS011;5580;50.106;8.702;2024-03-23T06:35:22;0.90;;;0.87;;
11054;SDS011;5580;50.106;8.702;2024-03-23T06:37:48;0.50;;;0.50;;
11054;SDS011;5580;50.106;8.702;2024-03-23T06:40:14;0.50;;;0.50;;
11054;SDS011;5580;50.106;8.702;2024-03-23T06:42:39;2.00;;;0.60;;
11054;SDS011;5580;50.106;8.702;2024-03-23T06:45:05;0.63;;;0.63;;
11054;SDS011;5580;50.106;8.702;2024-03-23T06:47:32;0.67;;;0.57;;
11054;SDS011;5580;50.106;8.702;2024-03-23T06:49:58;0.70;;;0.70;;
11054;SDS011;5580;50.106;8.702;2024-03-23T06:52:26;0.60;;;0.60;;
11054;SDS011;5580;50.106;8.702;2024-03-23T06:54:52;0.70;;;0.63;;
11054;SDS011;5580;50.106;8.702;2024-03-23T06:57:18;2.80;;;1.00;;
11054;SDS011;5580;50.106;8.702;2024-03-23T06:59:43;1.40;;;0.73;;
11054;SDS011;5580;50.106;8.702;2024-03-23T07:02:09;1.63;;;0.73;;
11054;SDS011;5580;50.106;8.702;2024-03-23T07:04:35;0.80;;;0.77;;
11054;SDS011;5580;50.106;8.702;2024-03-23T07:07:01;0.80;;;0.80;;
11054;SDS011;5580;50.106;8.702;2024-03-23T07:09:27;1.50;;;0.90;;
11054;SDS011;5580;50.106;8.702;2024-03-23T07:11:54;3.03;;;1.30;;
11054;SDS011;5580;50.106;8.702;2024-03-23T07:14:21;2.27;;;1.20;;
11054;SDS011;5580;50.106;8.702;2024-03-23T07:16:47;1.90;;;1.43;;
11054;SDS011;5580;50.106;8.702;2024-03-23T07:19:14;3.03;;;2.13;;
11054;SDS011;5580;50.106;8.702;2024-03-23T07:21:41;4.00;;;2.03;;
11054;SDS011;5580;50.106;8.702;2024-03-23T07:24:10;2.20;;;1.53;;
11054;SDS011;5580;50.106;8.702;2024-03-23T07:26:36;3.53;;;1.63;;
11054;SDS011;5580;50.106;8.702;2024-03-23T07:29:03;2.67;;;1.70;;
11054;SDS011;5580;50.106;8.702;2024-03-23T07:31:29;2.53;;;2.00;;
11054;SDS011;5580;50.106;8.702;2024-03-23T07:33:54;3.43;;;2.00;;
11054;SDS011;5580;50.106;8.702;2024-03-23T07:36:20;7.23;;;2.47;;
11054;SDS011;5580;50.106;8.702;2024-03-23T07:38:45;3.30;;;2.30;;
11054;SDS011;5580;50.106;8.702;2024-03-23T07:41:12;4.20;;;2.07;;
11054;SDS011;5580;50.106;8.702;2024-03-23T07:43:43;4.53;;;2.57;;
11054;SDS011;5580;50.106;8.702;2024-03-23T07:46:09;5.87;;;2.47;;
11054;SDS011;5580;50.106;8.702;2024-03-23T07:48:37;3.67;;;2.40;;
11054;SDS011;5580;50.106;8.702;2024-03-23T07:53:33;6.63;;;3.07;;
11054;SDS011;5580;50.106;8.702;2024-03-23T07:56:06;4.70;;;3.00;;
11054;SDS011;5580;50.106;8.702;2024-03-23T07:58:33;4.57;;;2.73;;
11054;SDS011;5580;50.106;8.702;2024-03-23T08:01:06;7.17;;;3.03;;
11054;SDS011;5580;50.106;8.702;2024-03-23T08:03:35;6.87;;;3.10;;
11054;SDS011;5580;50.106;8.702;2024-03-23T08:06:15;8.37;;;3.23;;
11054;SDS011;5580;50.106;8.702;2024-03-23T08:08:43;6.70;;;3.50;;
11054;SDS011;5580;50.106;8.702;2024-03-23T08:11:10;9.47;;;4.00;;
11054;SDS011;5580;50.106;8.702;2024-03-23T08:13:37;8.63;;;3.90;;
11054;SDS011;5580;50.106;8.702;2024-03-23T08:16:04;8.97;;;4.47;;
11054;SDS011;5580;50.106;8.702;2024-03-23T08:18:30;10.27;;;4.50;;
11054;SDS011;5580;50.106;8.702;2024-03-23T08:20:57;12.23;;;4.87;;
11054;SDS011;5580;50.106;8.702;2024-03-23T08:23:30;10.90;;;5.50;;
11054;SDS011;5580;50.106;8.702;2024-03-23T08:25:59;11.77;;;5.87;;
11054;SDS011;5580;50.106;8.702;2024-03-23T08:28:25;9.53;;;5.50;;
11054;SDS011;5580;50.106;8.702;2024-03-23T08:30:52;12.17;;;6.17;;
11054;SDS011;5580;50.106;8.702;2024-03-23T08:33:18;11.70;;;6.10;;
11054;SDS011;5580;50.106;8.702;2024-03-23T08:35:57;11.43;;;5.83;;
11054;SDS011;5580;50.106;8.702;2024-03-23T08:38:24;12.13;;;6.30;;
11054;SDS011;5580;50.106;8.702;2024-03-23T08:40:57;11.00;;;6.00;;
11054;SDS011;5580;50.106;8.702;2024-03-23T08:43:30;11.03;;;6.00;;
11054;SDS011;5580;50.106;8.702;2024-03-23T08:46:06;13.17;;;6.33;;
11054;SDS011;5580;50.106;8.702;2024-03-23T08:48:36;14.17;;;6.20;;
11054;SDS011;5580;50.106;8.702;2024-03-23T08:51:09;14.00;;;6.20;;
11054;SDS011;5580;50.106;8.702;2024-03-23T08:53:36;12.47;;;6.30;;
11054;SDS011;5580;50.106;8.702;2024-03-23T08:56:02;11.27;;;6.27;;
11054;SDS011;5580;50.106;8.702;2024-03-23T08:58:29;13.57;;;6.27;;
11054;SDS011;5580;50.106;8.702;2024-03-23T09:00:56;15.60;;;5.80;;
11054;SDS011;5580;50.106;8.702;2024-03-23T09:03:28;11.90;;;5.63;;
11054;SDS011;5580;50.106;8.702;2024-03-23T09:05:53;10.17;;;5.10;;
11054;SDS011;5580;50.106;8.702;2024-03-23T09:08:20;11.67;;;5.17;;
11054;SDS011;5580;50.106;8.702;2024-03-23T09:10:47;11.20;;;5.07;;
11054;SDS011;5580;50.106;8.702;2024-03-23T09:13:13;10.70;;;5.17;;
11054;SDS011;5580;50.106;8.702;2024-03-23T09:15:45;10.30;;;5.10;;
11054;SDS011;5580;50.106;8.702;2024-03-23T09:18:15;11.37;;;5.10;;
11054;SDS011;5580;50.106;8.702;2024-03-23T09:20:41;8.70;;;4.83;;
11054;SDS011;5580;50.106;8.702;2024-03-23T09:23:07;9.50;;;5.13;;
11054;SDS011;5580;50.106;8.702;2024-03-23T09:25:35;13.77;;;5.00;;
11054;SDS011;5580;50.106;8.702;2024-03-23T09:28:05;10.80;;;5.27;;
11054;SDS011;5580;50.106;8.702;2024-03-23T09:30:32;12.00;;;5.20;;
11054;SDS011;5580;50.106;8.702;2024-03-23T09:32:58;11.07;;;5.07;;
11054;SDS011;5580;50.106;8.702;2024-03-23T09:35:24;12.53;;;5.00;;
11054;SDS011;5580;50.106;8.702;2024-03-23T09:37:49;13.03;;;5.50;;
11054;SDS011;5580;50.106;8.702;2024-03-23T09:40:15;11.23;;;4.83;;
11054;SDS011;5580;50.106;8.702;2024-03-23T09:42:40;13.30;;;5.20;;
11054;SDS011;5580;50.106;8.702;2024-03-23T09:45:16;13.43;;;5.43;;
11054;SDS011;5580;50.106;8.702;2024-03-23T09:47:45;10.13;;;5.00;;
11054;SDS011;5580;50.106;8.702;2024-03-23T09:50:12;15.80;;;5.40;;
11054;SDS011;5580;50.106;8.702;2024-03-23T09:52:38;12.40;;;5.23;;
11054;SDS011;5580;50.106;8.702;2024-03-23T09:55:04;11.67;;;5.23;;
11054;SDS011;5580;50.106;8.702;2024-03-23T09:57:30;11.80;;;5.33;;
11054;SDS011;5580;50.106;8.702;2024-03-23T09:59:55;11.80;;;5.20;;
11054;SDS011;5580;50.106;8.702;2024-03-23T10:02:22;11.17;;;5.47;;
11054;SDS011;5580;50.106;8.702;2024-03-23T10:04:49;11.83;;;4.90;;
11054;SDS011;5580;50.106;8.702;2024-03-23T10:07:15;12.03;;;4.80;;
11054;SDS011;5580;50.106;8.702;2024-03-23T10:09:43;14.17;;;5.40;;
11054;SDS011;5580;50.106;8.702;2024-03-23T10:14:36;11.93;;;4.97;;
11054;SDS011;5580;50.106;8.702;2024-03-23T10:17:11;15.40;;;5.10;;
11054;SDS011;5580;50.106;8.702;2024-03-23T10:19:42;17.33;;;5.00;;
11054;SDS011;5580;50.106;8.702;2024-03-23T10:22:13;13.13;;;4.97;;
11054;SDS011;5580;50.106;8.702;2024-03-23T10:24:40;14.43;;;4.97;;
11054;SDS011;5580;50.106;8.702;2024-03-23T10:27:06;11.63;;;4.30;;
11054;SDS011;5580;50.106;8.702;2024-03-23T10:29:32;10.80;;;4.13;;
11054;SDS011;5580;50.106;8.702;2024-03-23T10:32:10;7.77;;;3.60;;
11054;SDS011;5580;50.106;8.702;2024-03-23T10:34:36;13.37;;;4.23;;
11054;SDS011;5580;50.106;8.702;2024-03-23T10:37:03;11.53;;;4.10;;
11054;SDS011;5580;50.106;8.702;2024-03-23T10:39:30;14.20;;;4.20;;
11054;SDS011;5580;50.106;8.702;2024-03-23T10:42:08;9.00;;;3.70;;
11054;SDS011;5580;50.106;8.702;2024-03-23T10:44:38;10.80;;;4.20;;
11054;SDS011;5580;50.106;8.702;2024-03-23T10:47:04;10.00;;;3.90;;
11054;SDS011;5580;50.106;8.702;2024-03-23T10:49:33;10.53;;;4.13;;
11054;SDS011;5580;50.106;8.702;2024-03-23T10:52:02;8.27;;;3.83;;
11054;SDS011;5580;50.106;8.702;2024-03-23T10:54:32;12.53;;;4.07;;
11054;SDS011;5580;50.106;8.702;2024-03-23T11:00:05;10.80;;;3.77;;
11054;SDS011;5580;50.106;8.702;2024-03-23T11:02:31;10.93;;;4.20;;
11054;SDS011;5580;50.106;8.702;2024-03-23T11:04:57;11.23;;;3.80;;
11054;SDS011;5580;50.106;8.702;2024-03-23T11:09:51;7.07;;;3.00;;
11054;SDS011;5580;50.106;8.702;2024-03-23T11:14:46;4.63;;;2.90;;
11054;SDS011;5580;50.106;8.702;2024-03-23T11:17:14;8.97;;;3.17;;
11054;SDS011;5580;50.106;8.702;2024-03-23T11:20:02;6.63;;;3.33;;
11054;SDS011;5580;50.106;8.702;2024-03-23T11:27:40;7.00;;;2.80;;
11054;SDS011;5580;50.106;8.702;2024-03-23T11:30:10;4.80;;;3.00;;
11054;SDS011;5580;50.106;8.702;2024-03-23T11:32:46;7.73;;;2.93;;
11054;SDS011;5580;50.106;8.702;2024-03-23T11:35:25;7.20;;;3.07;;
11054;SDS011;5580;50.106;8.702;2024-03-23T11:40:44;8.23;;;3.03;;
11054;SDS011;5580;50.106;8.702;2024-03-23T11:43:12;9.90;;;3.43;;
11054;SDS011;5580;50.106;8.702;2024-03-23T11:45:41;11.23;;;3.70;;
11054;SDS011;5580;50.106;8.702;2024-03-23T11:48:14;11.20;;;4.20;;
11054;SDS011;5580;50.106;8.702;2024-03-23T11:50:45;6.87;;;3.90;;
11054;SDS011;5580;50.106;8.702;2024-03-23T11:53:18;10.87;;;4.20;;
11054;SDS011;5580;50.106;8.702;2024-03-23T11:55:46;8.83;;;4.17;;
11054;SDS011;5580;50.106;8.702;2024-03-23T11:58:12;7.57;;;3.77;;
11054;SDS011;5580;50.106;8.702;2024-03-23T12:00:39;7.27;;;3.43;;
11054;SDS011;5580;50.106;8.702;2024-03-23T12:03:05;8.10;;;3.73;;
11054;SDS011;5580;50.106;8.702;2024-03-23T12:05:31;9.07;;;3.87;;
11054;SDS011;5580;50.106;8.702;2024-03-23T12:08:17;11.00;;;3.90;;
11054;SDS011;5580;50.106;8.702;2024-03-23T12:10:50;7.50;;;3.77;;
11054;SDS011;5580;50.106;8.702;2024-03-23T12:13:17;7.77;;;4.23;;
11054;SDS011;5580;50.106;8.702;2024-03-23T12:15:44;11.37;;;4.40;;
11054;SDS011;5580;50.106;8.702;2024-03-23T12:18:11;11.50;;;4.20;;
11054;SDS011;5580;50.106;8.702;2024-03-23T12:20:37;12.73;;;4.43;;
11054;SDS011;5580;50.106;8.702;2024-03-23T12:23:10;8.03;;;3.93;;
11054;SDS011;5580;50.106;8.702;2024-03-23T12:25:37;8.33;;;4.20;;
11054;SDS011;5580;50.106;8.702;2024-03-23T12:28:04;6.13;;;3.53;;
11054;SDS011;5580;50.106;8.702;2024-03-23T12:30:36;8.40;;;3.97;;
11054;SDS011;5580;50.106;8.702;2024-03-23T12:33:04;13.50;;;4.10;;
11054;SDS011;5580;50.106;8.702;2024-03-23T12:35:30;7.77;;;3.97;;
11054;SDS011;5580;50.106;8.702;2024-03-23T12:37:56;9.07;;;4.10;;
11054;SDS011;5580;50.106;8.702;2024-03-23T12:40:22;9.83;;;4.17;;
11054;SDS011;5580;50.106;8.702;2024-03-23T12:42:48;8.90;;;4.50;;
11054;SDS011;5580;50.106;8.702;2024-03-23T12:45:14;8.50;;;4.17;;
11054;SDS011;5580;50.106;8.702;2024-03-23T12:47:39;8.57;;;4.20;;
11054;SDS011;5580;50.106;8.702;2024-03-23T12:50:05;11.53;;;4.07;;
11054;SDS011;5580;50.106;8.702;2024-03-23T12:52:32;9.93;;;4.00;;
11054;SDS011;5580;50.106;8.702;2024-03-23T12:54:58;9.53;;;4.00;;
11054;SDS011;5580;50.106;8.702;2024-03-23T12:57:24;7.73;;;4.30;;
11054;SDS011;5580;50.106;8.702;2024-03-23T12:59:50;9.73;;;4.20;;
11054;SDS011;5580;50.106;8.702;2024-03-23T13:02:18;9.47;;;4.30;;
11054;SDS011;5580;50.106;8.702;2024-03-23T13:04:45;9.80;;;4.50;;
11054;SDS011;5580;50.106;8.702;2024-03-23T13:07:20;10.07;;;4.57;;
11054;SDS011;5580;50.106;8.702;2024-03-23T13:09:47;9.70;;;4.37;;
11054;SDS011;5580;50.106;8.702;2024-03-23T13:12:14;10.87;;;4.40;;
11054;SDS011;5580;50.106;8.702;2024-03-23T13:14:40;10.20;;;3.97;;
11054;SDS011;5580;50.106;8.702;2024-03-23T13:17:07;8.73;;;4.20;;
11054;SDS011;5580;50.106;8.702;2024-03-23T13:19:33;13.87;;;3.90;;
11054;SDS011;5580;50.106;8.702;2024-03-23T13:21:59;7.70;;;3.50;;
11054;SDS011;5580;50.106;8.702;2024-03-23T13:24:25;8.53;;;2.70;;
11054;SDS011;5580;50.106;8.702;2024-03-23T13:26:52;5.90;;;2.50;;
11054;SDS011;5580;50.106;8.702;2024-03-23T13:29:19;10.47;;;2.13;;
11054;SDS011;5580;50.106;8.702;2024-03-23T13:31:48;2.80;;;1.93;;
11054;SDS011;5580;50.106;8.702;2024-03-23T13:34:15;3.53;;;1.50;;
11054;SDS011;5580;50.106;8.702;2024-03-23T13:36:41;2.80;;;1.87;;
11054;SDS011;5580;50.106;8.702;2024-03-23T13:39:08;2.93;;;1.60;;
11054;SDS011;5580;50.106;8.702;2024-03-23T13:41:43;3.67;;;1.97;;
11054;SDS011;5580;50.106;8.702;2024-03-23T13:44:13;2.93;;;1.77;;
11054;SDS011;5580;50.106;8.702;2024-03-23T13:46:42;4.20;;;2.13;;
11054;SDS011;5580;50.106;8.702;2024-03-23T13:49:14;2.13;;;1.70;;
11054;SDS011;5580;50.106;8.702;2024-03-23T13:51:50;2.43;;;1.67;;
11054;SDS011;5580;50.106;8.702;2024-03-23T13:54:15;2.60;;;1.50;;
11054;SDS011;5580;50.106;8.702;2024-03-23T13:56:41;3.77;;;2.10;;
11054;SDS011;5580;50.106;8.702;2024-03-23T13:59:06;2.97;;;1.43;;
11054;SDS011;5580;50.106;8.702;2024-03-23T14:01:32;3.37;;;1.70;;
11054;SDS011;5580;50.106;8.702;2024-03-23T14:03:58;2.70;;;2.10;;
11054;SDS011;5580;50.106;8.702;2024-03-23T14:06:23;4.53;;;2.07;;
11054;SDS011;5580;50.106;8.702;2024-03-23T14:08:49;2.70;;;2.00;;
11054;SDS011;5580;50.106;8.702;2024-03-23T14:11:15;3.77;;;2.23;;
11054;SDS011;5580;50.106;8.702;2024-03-23T14:13:43;3.80;;;2.67;;
11054;SDS011;5580;50.106;8.702;2024-03-23T14:16:09;4.13;;;2.27;;
11054;SDS011;5580;50.106;8.702;2024-03-23T14:18:35;4.47;;;2.07;;
11054;SDS011;5580;50.106;8.702;2024-03-23T14:21:00;3.13;;;1.90;;
11054;SDS011;5580;50.106;8.702;2024-03-23T14:23:27;4.63;;;2.20;;
11054;SDS011;5580;50.106;8.702;2024-03-23T14:25:59;5.37;;;2.20;;
11054;SDS011;5580;50.106;8.702;2024-03-23T14:28:25;2.40;;;2.20;;
11054;SDS011;5580;50.106;8.702;2024-03-23T14:30:51;3.37;;;1.90;;
11054;SDS011;5580;50.106;8.702;2024-03-23T14:33:20;3.30;;;1.87;;
11054;SDS011;5580;50.106;8.702;2024-03-23T14:35:52;1.73;;;1.47;;
11054;SDS011;5580;50.106;8.702;2024-03-23T14:38:19;4.20;;;1.70;;
11054;SDS011;5580;50.106;8.702;2024-03-23T14:40:45;3.50;;;1.53;;
11054;SDS011;5580;50.106;8.702;2024-03-23T14:43:11;3.17;;;2.27;;
11054;SDS011;5580;50.106;8.702;2024-03-23T14:45:45;3.50;;;2.27;;
11054;SDS011;5580;50.106;8.702;2024-03-23T14:48:29;1.90;;;1.57;;
11054;SDS011;5580;50.106;8.702;2024-03-23T14:50:58;2.80;;;1.50;;
11054;SDS011;5580;50.106;8.702;2024-03-23T14:53:24;3.27;;;1.60;;
11054;SDS011;5580;50.106;8.702;2024-03-23T14:55:51;2.17;;;1.70;;
11054;SDS011;5580;50.106;8.702;2024-03-23T14:58:19;5.60;;;1.93;;
11054;SDS011;5580;50.106;8.702;2024-03-23T15:00:45;4.37;;;1.87;;
11054;SDS011;5580;50.106;8.702;2024-03-23T15:03:10;5.67;;;1.90;;
11054;SDS011;5580;50.106;8.702;2024-03-23T15:05:36;1.57;;;1.43;;
11054;SDS011;5580;50.106;8.702;2024-03-23T15:08:02;2.60;;;1.80;;
11054;SDS011;5580;50.106;8.702;2024-03-23T15:10:28;4.07;;;1.77;;
11054;SDS011;5580;50.106;8.702;2024-03-23T15:12:53;4.47;;;1.90;;
11054;SDS011;5580;50.106;8.702;2024-03-23T15:15:19;3.50;;;2.10;;
11054;SDS011;5580;50.106;8.702;2024-03-23T15:17:44;5.97;;;2.27;;
11054;SDS011;5580;50.106;8.702;2024-03-23T15:20:10;2.73;;;1.90;;
11054;SDS011;5580;50.106;8.702;2024-03-23T15:22:37;4.43;;;1.90;;
11054;SDS011;5580;50.106;8.702;2024-03-23T15:25:02;4.53;;;2.07;;
11054;SDS011;5580;50.106;8.702;2024-03-23T15:27:28;3.50;;;2.00;;
11054;SDS011;5580;50.106;8.702;2024-03-23T15:29:55;5.07;;;2.03;;
11054;SDS011;5580;50.106;8.702;2024-03-23T15:32:22;3.40;;;1.93;;
11054;SDS011;5580;50.106;8.702;2024-03-23T15:34:48;3.17;;;2.00;;
11054;SDS011;5580;50.106;8.702;2024-03-23T15:37:14;4.07;;;2.13;;
11054;SDS011;5580;50.106;8.702;2024-03-23T15:39:40;3.93;;;1.90;;
11054;SDS011;5580;50.106;8.702;2024-03-23T15:42:06;4.80;;;2.10;;
11054;SDS011;5580;50.106;8.702;2024-03-23T15:44:33;2.57;;;1.60;;
11054;SDS011;5580;50.106;8.702;2024-03-23T15:46:58;2.53;;;1.70;;
11054;SDS011;5580;50.106;8.702;2024-03-23T15:49:24;5.27;;;2.00;;
11054;SDS011;5580;50.106;8.702;2024-03-23T15:51:50;1.87;;;1.60;;
11054;SDS011;5580;50.106;8.702;2024-03-23T15:54:15;4.70;;;1.80;;
11054;SDS011;5580;50.106;8.702;2024-03-23T15:56:41;2.10;;;1.70;;
11054;SDS011;5580;50.106;8.702;2024-03-23T15:59:06;2.00;;;1.60;;
11054;SDS011;5580;50.106;8.702;2024-03-23T16:01:32;3.33;;;2.23;;
11054;SDS011;5580;50.106;8.702;2024-03-23T16:03:59;2.10;;;1.87;;